Time;durP1;ratioP1;P1;durP2;ratioP2;P2;SDS_P1;SDS_P2;PMS_P1;PMS_P2;Temp;Humidity;BMP_temperature;BMP_pressure;BME280_temperature;BME280_humidity;BME280_pressure;Samples;Min_cycle;Max_cycle;Signal;HPM_P1;HPM_P2
2023/10/17 04:01:18;;;;;;;0.50;0.10;;;7.10;86.20;;;;;;5594824;23;20847;-71
2023/10/17 04:03:48;;;;;;;0.80;0.57;;;6.90;91.10;;;;;;5014559;28;20467;-72
2023/10/17 04:06:21;;;;;;;0.57;0.27;;;6.90;92.80;;;;;;5014339;28;20455;-72
2023/10/17 04:09:15;;;;;;;0.50;0.10;;;6.90;95.70;;;;;;5006699;28;20446;-73
2023/10/17 04:11:48;;;;;;;0.50;0.17;;;6.90;97.60;;;;;;4991062;28;20515;-73
2023/10/17 04:14:20;;;;;;;0.60;0.40;;;6.90;97.60;;;;;;4984426;28;20540;-72
2023/10/17 04:16:49;;;;;;;0.50;0.10;;;6.90;97.40;;;;;;4988094;28;20445;-73
2023/10/17 04:19:18;;;;;;;0.50;0.10;;;7.00;98.80;;;;;;4994554;28;20455;-72
2023/10/17 04:21:51;;;;;;;0.50;0.10;;;7.00;97.50;;;;;;4975227;28;20492;-72
2023/10/17 04:24:28;;;;;;;0.70;0.40;;;7.00;94.70;;;;;;4976118;28;20450;-74
2023/10/17 04:27:06;;;;;;;0.50;0.10;;;6.90;95.10;;;;;;4989249;28;20453;-73
2023/10/17 04:29:35;;;;;;;0.50;0.10;;;6.90;94.90;;;;;;4995271;28;20476;-74
2023/10/17 04:32:09;;;;;;;0.50;0.10;;;6.90;96.10;;;;;;4974466;28;20586;-74
2023/10/17 04:34:46;;;;;;;0.50;0.10;;;6.90;96.80;;;;;;4982773;28;20448;-74
2023/10/17 04:37:16;;;;;;;0.50;0.20;;;6.90;95.70;;;;;;4975390;28;20449;-73
2023/10/17 04:39:57;;;;;;;0.50;0.10;;;6.90;94.80;;;;;;4977083;28;20822;-73
2023/10/17 04:42:47;;;;;;;0.50;0.10;;;6.90;97.70;;;;;;4991703;28;20582;-72
2023/10/17 04:45:13;;;;;;;0.50;0.10;;;6.90;96.60;;;;;;4986892;28;20833;-72
2023/10/17 04:47:45;;;;;;;0.60;0.47;;;6.90;96.80;;;;;;4976539;28;20473;-73
2023/10/17 04:50:12;;;;;;;3.50;3.40;;;6.90;96.50;;;;;;4970286;28;20912;-73
2023/10/17 04:52:41;;;;;;;0.50;0.10;;;;;;;;;;4974926;28;20504;-72
2023/10/17 04:55:18;;;;;;;0.50;0.10;;;7.00;96.40;;;;;;4974848;28;20440;-75
2023/10/17 04:57:56;;;;;;;0.50;0.10;;;7.00;95.50;;;;;;4966683;28;20549;-75
2023/10/17 05:00:42;;;;;;;0.50;0.10;;;7.00;95.30;;;;;;4974229;28;21013;-72
2023/10/17 05:03:14;;;;;;;0.50;0.10;;;7.00;95.60;;;;;;4974708;28;20487;-73
2023/10/17 05:06:00;;;;;;;0.50;0.10;;;7.00;95.70;;;;;;4974800;28;20456;-75
2023/10/17 05:08:49;;;;;;;0.50;0.10;;;7.00;95.60;;;;;;4971682;28;20463;-74
2023/10/17 06:18:32;;;;;;;0.50;0.10;;;;;;;;;;4974330;28;20932;-75
2023/10/17 06:21:18;;;;;;;0.50;0.10;;;6.90;92.30;;;;;;4974184;28;20517;-72
2023/10/17 06:26:58;;;;;;;1.20;0.83;;;7.00;90.20;;;;;;4972652;28;20461;-73
2023/10/17 06:32:48;;;;;;;0.50;0.10;;;7.10;91.00;;;;;;4972048;28;20472;-74
2023/10/17 06:35:20;;;;;;;0.50;0.10;;;7.10;95.60;;;;;;4972681;28;20452;-75
2023/10/17 06:37:49;;;;;;;0.60;0.43;;;7.20;90.30;;;;;;4973808;28;20452;-74
2023/10/17 06:40:16;;;;;;;0.50;0.10;;;7.10;89.00;;;;;;4974078;28;20995;-72
2023/10/17 06:42:57;;;;;;;0.50;0.10;;;7.20;89.00;;;;;;4973999;28;20489;-73
2023/10/17 06:45:25;;;;;;;0.60;0.43;;;10.70;89.50;;;;;;4974115;28;20508;-75
2023/10/17 06:47:57;;;;;;;0.50;0.10;;;7.70;84.40;;;;;;4966848;28;20536;-73
2023/10/17 06:53:15;;;;;;;0.50;0.10;;;7.20;83.40;;;;;;4956921;28;20456;-75
2023/10/17 06:55:44;;;;;;;0.50;0.10;;;7.20;84.70;;;;;;4974288;28;20537;-75
2023/10/17 06:58:15;;;;;;;0.50;0.10;;;7.20;84.30;;;;;;4973243;28;20446;-74
2023/10/17 07:00:49;;;;;;;0.50;0.20;;;7.20;84.90;;;;;;4973110;28;20532;-75
2023/10/17 07:03:24;;;;;;;0.50;0.10;;;7.10;85.30;;;;;;4972868;28;20490;-73
2023/10/17 07:05:55;;;;;;;0.50;0.10;;;7.10;88.40;;;;;;4972756;28;20440;-73
2023/10/17 07:08:23;;;;;;;0.50;0.10;;;7.20;90.00;;;;;;4972846;28;20449;-75
2023/10/17 07:11:09;;;;;;;0.50;0.20;;;7.30;86.10;;;;;;4974030;28;20458;-75
2023/10/17 07:13:55;;;;;;;1.07;0.87;;;7.30;85.00;;;;;;4973486;28;21015;-73
2023/10/17 07:16:33;;;;;;;0.60;0.40;;;7.30;85.30;;;;;;4973120;28;20474;-74
2023/10/17 07:19:46;;;;;;;0.50;0.20;;;7.40;86.70;;;;;;4972344;28;20941;-73
2023/10/17 07:22:05;;;;;;;0.50;0.20;;;7.40;84.50;;;;;;4973206;28;20468;-74
2023/10/17 07:24:35;;;;;;;0.60;0.20;;;7.50;82.00;;;;;;4973142;28;20477;-73
2023/10/17 07:27:11;;;;;;;0.50;0.10;;;7.50;79.90;;;;;;4972550;28;20463;-74
2023/10/17 07:29:45;;;;;;;0.50;0.10;;;7.50;79.50;;;;;;4972535;28;20449;-74
2023/10/17 07:32:16;;;;;;;0.50;0.20;;;7.60;75.70;;;;;;4972619;28;20469;-74
2023/10/17 07:34:45;;;;;;;0.80;0.77;;;7.50;71.60;;;;;;4972597;28;20453;-72
2023/10/17 07:37:22;;;;;;;0.60;0.30;;;7.50;73.90;;;;;;4972634;28;20449;-73
2023/10/17 07:40:15;;;;;;;0.60;0.30;;;7.60;73.60;;;;;;4972451;28;20808;-74
2023/10/17 07:42:45;;;;;;;0.60;0.20;;;7.60;73.40;;;;;;4973277;28;21102;-74
2023/10/17 07:45:16;;;;;;;0.50;0.10;;;7.70;71.40;;;;;;4974010;28;20462;-73
2023/10/17 07:47:51;;;;;;;0.50;0.10;;;7.70;70.70;;;;;;4974113;28;20531;-73
2023/10/17 07:50:20;;;;;;;1.73;0.57;;;7.70;70.60;;;;;;4973425;28;20955;-72
2023/10/17 07:52:51;;;;;;;0.50;0.10;;;7.80;71.50;;;;;;4974659;28;20489;-73
2023/10/17 07:55:19;;;;;;;0.50;0.10;;;7.90;69.70;;;;;;4974680;28;20561;-72
2023/10/17 07:57:51;;;;;;;0.50;0.10;;;8.00;69.60;;;;;;4976489;28;20457;-72
2023/10/17 08:00:31;;;;;;;0.50;0.20;;;7.90;65.60;;;;;;4972715;28;21039;-73
2023/10/17 08:03:09;;;;;;;0.50;0.10;;;7.90;66.10;;;;;;4965453;28;20493;-73
2023/10/17 08:05:44;;;;;;;1.13;0.93;;;8.00;65.60;;;;;;4973370;28;20945;-73
2023/10/17 08:08:14;;;;;;;0.50;0.23;;;8.10;66.20;;;;;;4973243;28;20822;-73
2023/10/17 08:10:45;;;;;;;0.50;0.10;;;8.20;65.60;;;;;;4974087;28;20491;-74
2023/10/17 08:13:14;;;;;;;0.50;0.10;;;8.30;63.60;;;;;;4971620;28;20572;-74
2023/10/17 08:15:52;;;;;;;0.50;0.10;;;10.90;64.00;;;;;;4992606;28;20548;-73
2023/10/17 08:18:24;;;;;;;0.50;0.10;;;8.40;59.60;;;;;;4997394;28;20593;-73
2023/10/17 08:21:07;;;;;;;0.60;0.20;;;8.40;61.00;;;;;;4999527;28;20509;-74
2023/10/17 08:23:34;;;;;;;0.50;0.10;;;8.20;58.00;;;;;;4997162;28;20492;-73
2023/10/17 08:26:03;;;;;;;0.50;0.10;;;8.20;61.80;;;;;;4996514;28;20448;-73
2023/10/17 08:28:33;;;;;;;0.50;0.10;;;8.30;65.90;;;;;;4993116;28;20476;-74
2023/10/17 08:31:17;;;;;;;0.50;0.10;;;8.30;66.00;;;;;;4993436;28;20547;-74
2023/10/17 08:33:52;;;;;;;0.50;0.10;;;8.30;67.20;;;;;;4987216;28;20456;-73
2023/10/17 08:36:23;;;;;;;0.50;0.10;;;8.40;66.30;;;;;;4996074;28;20820;-73
2023/10/17 08:38:54;;;;;;;0.50;0.10;;;8.40;63.60;;;;;;4995853;28;20447;-74
2023/10/17 08:41:23;;;;;;;1.13;0.83;;;8.30;60.30;;;;;;4995119;28;20488;-73
2023/10/17 08:43:53;;;;;;;0.50;0.20;;;8.30;64.00;;;;;;4993530;28;20491;-74
2023/10/17 08:46:22;;;;;;;0.50;0.10;;;8.30;62.90;;;;;;4983635;28;20503;-74
2023/10/17 08:48:56;;;;;;;0.50;0.10;;;8.30;66.60;;;;;;4993619;28;20459;-73
2023/10/17 08:51:25;;;;;;;0.50;0.10;;;8.50;66.20;;;;;;4993942;28;20468;-72
2023/10/17 08:53:56;;;;;;;15.87;13.83;;;8.40;60.60;;;;;;4995707;28;20460;-73
2023/10/17 08:56:28;;;;;;;1.17;0.77;;;8.50;64.10;;;;;;4994789;28;20448;-75
2023/10/17 08:59:03;;;;;;;0.50;0.20;;;8.50;64.90;;;;;;4995399;28;20931;-73
2023/10/17 09:01:32;;;;;;;0.50;0.10;;;8.70;65.60;;;;;;4995784;28;20491;-73
2023/10/17 09:04:04;;;;;;;2.00;1.90;;;8.70;65.10;;;;;;4995944;28;20476;-73
2023/10/17 09:06:37;;;;;;;1.43;1.33;;;8.80;66.30;;;;;;4998052;28;20519;-73
2023/10/17 09:09:21;;;;;;;0.50;0.20;;;8.80;66.90;;;;;;4993259;28;20437;-72
2023/10/17 09:12:03;;;;;;;0.50;0.10;;;8.70;65.70;;;;;;5000187;28;20971;-73
2023/10/17 09:14:35;;;;;;;0.50;0.10;;;7.00;67.50;;;;;;4998483;28;20506;-74
2023/10/17 09:17:11;;;;;;;0.60;0.30;;;8.80;67.70;;;;;;4995586;28;20452;-74
2023/10/17 09:19:46;;;;;;;0.80;0.50;;;8.80;67.20;;;;;;4996222;28;20451;-74
2023/10/17 09:22:15;;;;;;;0.60;0.30;;;8.90;70.90;;;;;;4995506;28;20514;-75
2023/10/17 09:24:48;;;;;;;0.50;0.20;;;8.90;66.60;;;;;;4995133;28;20484;-73
2023/10/17 09:27:17;;;;;;;0.50;0.10;;;9.00;61.40;;;;;;4995292;28;20619;-73
2023/10/17 09:29:47;;;;;;;0.50;0.10;;;9.00;62.90;;;;;;4985576;28;20445;-73
2023/10/17 09:35:14;;;;;;;0.50;0.20;;;9.00;55.30;;;;;;5088804;27;20580;-75
2023/10/17 09:37:43;;;;;;;0.50;0.10;;;9.10;57.50;;;;;;5089383;28;20877;-72
2023/10/17 09:40:13;;;;;;;0.50;0.10;;;9.10;56.30;;;;;;5089401;28;20449;-74
2023/10/17 09:42:45;;;;;;;0.60;0.27;;;9.20;56.30;;;;;;5069499;28;20449;-73
2023/10/17 09:45:14;;;;;;;0.50;0.10;;;9.30;53.70;;;;;;5069449;28;20445;-74
2023/10/17 09:48:04;;;;;;;0.50;0.10;;;9.40;50.90;;;;;;5069377;28;20457;-72
2023/10/17 09:50:37;;;;;;;0.60;0.30;;;9.50;49.30;;;;;;5068055;28;20870;-73
2023/10/17 09:53:14;;;;;;;2.60;0.57;;;9.60;43.40;;;;;;5067809;28;20939;-74
2023/10/17 09:55:47;;;;;;;0.50;0.20;;;9.50;35.30;;;;;;5068249;28;21039;-72
2023/10/17 09:58:20;;;;;;;0.57;0.10;;;9.60;30.60;;;;;;5068727;28;20446;-73
2023/10/17 10:00:52;;;;;;;0.60;0.10;;;9.60;29.50;;;;;;5068541;28;20465;-74
2023/10/17 10:03:22;;;;;;;0.50;0.10;;;9.70;30.00;;;;;;5068347;28;20445;-74
2023/10/17 10:05:54;;;;;;;0.60;0.10;;;9.70;29.90;;;;;;5068189;28;20456;-73
2023/10/17 10:08:29;;;;;;;0.80;0.40;;;9.80;27.70;;;;;;5068018;28;20437;-74
2023/10/17 10:11:00;;;;;;;0.70;0.40;;;9.80;25.60;;;;;;5067646;28;20460;-76
2023/10/17 10:13:28;;;;;;;0.60;0.23;;;9.80;25.50;;;;;;5067409;28;20503;-74
2023/10/17 10:15:59;;;;;;;0.53;0.10;;;9.80;24.60;;;;;;5067820;28;20457;-73
2023/10/17 10:18:54;;;;;;;0.60;0.10;;;9.80;22.70;;;;;;5067749;28;20446;-69
2023/10/17 10:21:43;;;;;;;0.60;0.20;;;9.80;21.50;;;;;;5061883;28;20519;-72
2023/10/17 10:24:17;;;;;;;0.53;0.10;;;9.90;21.30;;;;;;5067545;28;20449;-72
2023/10/17 10:26:46;;;;;;;0.60;0.20;;;9.90;17.40;;;;;;5067309;28;20884;-73
2023/10/17 10:29:23;;;;;;;0.50;0.10;;;9.90;17.50;;;;;;5067729;28;20445;-72
2023/10/17 10:31:52;;;;;;;0.60;0.10;;;10.00;18.30;;;;;;5067435;28;20461;-72
2023/10/17 10:34:20;;;;;;;0.60;0.10;;;10.10;18.50;;;;;;5067302;28;20504;-73
2023/10/17 10:36:50;;;;;;;0.60;0.10;;;10.10;18.50;;;;;;5067012;28;20442;-72
2023/10/17 10:39:19;;;;;;;0.73;0.40;;;10.20;18.50;;;;;;5067302;28;21014;-71
2023/10/17 10:41:57;;;;;;;0.80;0.53;;;10.20;13.50;;;;;;5067260;28;20473;-71
2023/10/17 10:44:26;;;;;;;0.60;0.40;;;10.10;14.40;;;;;;5066356;28;20979;-72
2023/10/17 10:46:55;;;;;;;0.60;0.10;;;10.10;13.80;;;;;;5056094;28;20453;-73
2023/10/17 10:49:27;;;;;;;0.60;0.10;;;10.20;13.80;;;;;;5053502;28;20534;-71
2023/10/17 10:51:58;;;;;;;0.60;0.10;;;10.30;14.80;;;;;;5053788;28;20462;-72
2023/10/17 10:54:50;;;;;;;0.60;0.10;;;10.40;13.90;;;;;;5048112;28;20486;-71
2023/10/17 10:57:27;;;;;;;0.70;0.37;;;10.40;13.30;;;;;;5047149;28;20485;-71
2023/10/17 10:59:55;;;;;;;0.60;0.10;;;10.40;10.80;;;;;;5053497;28;20532;-72
2023/10/17 11:02:23;;;;;;;2.03;1.17;;;10.40;11.90;;;;;;5053533;28;20498;-71
2023/10/17 11:04:56;;;;;;;0.60;0.10;;;10.40;11.10;;;;;;5053819;28;20488;-71
2023/10/17 11:07:25;;;;;;;0.60;0.10;;;10.40;9.50;;;;;;5053318;28;20438;-72
2023/10/17 11:10:03;;;;;;;0.60;0.10;;;10.50;10.50;;;;;;5054428;28;20492;-72
2023/10/17 11:12:31;;;;;;;0.60;0.10;;;10.60;9.50;;;;;;5045060;28;20516;-72
2023/10/17 11:15:14;;;;;;;0.60;0.10;;;10.60;7.70;;;;;;5053249;28;20482;-70
2023/10/17 11:17:43;;;;;;;0.60;0.10;;;10.50;7.00;;;;;;5053446;28;20442;-70
2023/10/17 11:20:18;;;;;;;0.60;0.10;;;9.90;7.60;;;;;;5053526;28;21072;-70
2023/10/17 11:22:48;;;;;;;0.60;0.10;;;10.60;7.90;;;;;;5053529;28;20450;-71
2023/10/17 11:25:26;;;;;;;0.60;0.10;;;10.20;9.90;;;;;;5053893;28;20566;-70
2023/10/17 11:28:00;;;;;;;0.60;0.10;;;10.60;8.80;;;;;;5044997;28;20913;-71
2023/10/17 11:30:36;;;;;;;0.60;0.20;;;10.50;7.40;;;;;;5053322;28;20468;-71
2023/10/17 11:33:05;;;;;;;1.13;0.37;;;10.40;6.70;;;;;;5045100;28;20539;-71
2023/10/17 11:35:34;;;;;;;0.63;0.63;;;10.30;6.40;;;;;;5053521;28;20477;-71
2023/10/17 11:38:04;;;;;;;0.60;0.20;;;10.30;6.20;;;;;;5053376;28;20449;-72
2023/10/17 11:40:43;;;;;;;0.60;0.10;;;10.40;7.90;;;;;;5056419;28;20462;-72
2023/10/17 11:43:16;;;;;;;0.80;0.30;;;10.40;7.10;;;;;;5055774;28;20874;-71
2023/10/17 11:45:45;;;;;;;0.60;0.20;;;10.40;6.60;;;;;;5054216;28;20434;-71
2023/10/17 11:48:31;;;;;;;0.60;0.10;;;10.40;6.20;;;;;;5053921;28;20442;-70
2023/10/17 11:51:12;;;;;;;0.60;0.10;;;10.50;7.40;;;;;;5053262;28;20470;-72
2023/10/17 11:54:05;;;;;;;0.60;0.20;;;10.60;8.00;;;;;;5053522;28;20446;-71
2023/10/17 11:56:48;;;;;;;0.60;0.10;;;10.70;6.50;;;;;;5049489;28;20450;-71
2023/10/17 11:59:18;;;;;;;0.60;0.10;;;10.80;5.70;;;;;;5053841;28;20442;-72
2023/10/17 12:01:46;;;;;;;0.70;0.50;;;10.90;4.20;;;;;;5053451;28;20474;-70
2023/10/17 12:04:16;;;;;;;0.60;0.20;;;10.90;3.10;;;;;;5038027;28;20446;-72
2023/10/17 12:06:47;;;;;;;0.60;0.10;;;10.90;1.10;;;;;;5050218;28;20447;-72
2023/10/17 12:09:22;;;;;;;0.80;0.37;;;11.00;1.00;;;;;;5059464;28;20458;-71
2023/10/17 12:11:52;;;;;;;0.60;0.10;;;11.00;1.00;;;;;;5056920;28;20457;-71
2023/10/17 12:14:21;;;;;;;0.60;0.10;;;11.00;1.50;;;;;;5054651;28;20450;-71
2023/10/17 12:16:49;;;;;;;0.60;0.10;;;11.20;2.00;;;;;;5053209;28;20450;-72
2023/10/17 12:19:18;;;;;;;0.70;0.40;;;11.30;2.30;;;;;;5044842;28;20446;-71
2023/10/17 12:21:48;;;;;;;0.60;0.20;;;11.30;1.50;;;;;;5052983;28;20550;-72
2023/10/17 12:24:24;;;;;;;0.60;0.10;;;11.50;1.60;;;;;;5053447;28;20469;-71
2023/10/17 12:26:53;;;;;;;0.60;0.20;;;11.50;1.00;;;;;;5053143;28;20479;-72
2023/10/17 12:29:21;;;;;;;5.23;4.37;;;11.50;1.00;;;;;;5052017;28;20821;-72
2023/10/17 12:31:49;;;;;;;0.60;0.30;;;11.60;1.00;;;;;;5053284;28;20469;-72
2023/10/17 12:34:18;;;;;;;0.60;0.20;;;11.70;1.00;;;;;;5052674;28;20454;-71
2023/10/17 12:36:48;;;;;;;0.60;0.20;;;11.90;1.00;;;;;;5052183;28;20454;-71
2023/10/17 12:39:16;;;;;;;0.60;0.10;;;11.80;1.00;;;;;;5052200;28;20944;-70
2023/10/17 12:41:48;;;;;;;0.60;0.20;;;11.80;1.00;;;;;;5052110;28;20466;-71
2023/10/17 12:44:17;;;;;;;0.60;0.10;;;11.90;1.00;;;;;;5051437;28;20460;-71
2023/10/17 12:46:44;;;;;;;0.80;0.80;;;11.90;1.00;;;;;;5051756;28;20442;-70
2023/10/17 12:49:12;;;;;;;0.60;0.20;;;11.90;1.00;;;;;;5043927;28;21020;-70
2023/10/17 12:51:43;;;;;;;0.60;0.10;;;;;;;;;;5052653;28;20553;-70
2023/10/17 12:54:11;;;;;;;1.37;1.27;;;12.10;1.00;;;;;;5053592;28;20470;-72
2023/10/17 12:56:40;;;;;;;0.60;0.10;;;12.10;1.00;;;;;;5052757;28;20520;-75
2023/10/17 12:59:12;;;;;;;0.60;0.10;;;12.20;1.00;;;;;;5052821;28;20442;-73
2023/10/17 13:01:40;;;;;;;0.60;0.20;;;12.20;1.00;;;;;;5052418;28;20465;-73
2023/10/17 13:04:09;;;;;;;0.60;0.10;;;12.20;1.00;;;;;;5052242;28;20469;-71
2023/10/17 13:06:38;;;;;;;0.60;0.20;;;12.20;1.00;;;;;;5052482;28;20438;-74
2023/10/17 13:09:06;;;;;;;0.60;0.10;;;12.20;1.00;;;;;;5051738;28;21042;-73
2023/10/17 13:11:34;;;;;;;0.60;0.10;;;12.20;1.00;;;;;;5051912;28;20553;-72
2023/10/17 13:14:02;;;;;;;0.60;0.10;;;12.30;1.00;;;;;;5052042;28;20821;-72
2023/10/17 13:16:33;;;;;;;0.60;0.10;;;12.40;1.00;;;;;;5051245;28;20531;-72
2023/10/17 13:19:06;;;;;;;0.70;0.57;;;12.40;1.00;;;;;;5051183;28;20446;-73
2023/10/17 13:21:37;;;;;;;1.47;1.37;;;12.40;1.00;;;;;;5051282;28;20498;-72
2023/10/17 13:24:07;;;;;;;1.57;1.47;;;12.40;1.00;;;;;;5051951;28;20438;-71
2023/10/17 13:26:37;;;;;;;1.17;1.07;;;12.40;1.00;;;;;;5052021;28;20495;-73
2023/10/17 13:29:05;;;;;;;0.60;0.30;;;12.50;1.00;;;;;;5051385;28;20525;-73
2023/10/17 13:31:34;;;;;;;0.60;0.10;;;12.50;1.00;;;;;;5051428;28;20462;-71
2023/10/17 13:34:04;;;;;;;0.60;0.10;;;12.50;1.00;;;;;;5051276;28;20794;-73
2023/10/17 13:36:32;;;;;;;0.60;0.10;;;12.60;1.00;;;;;;5051938;28;20846;-74
2023/10/17 13:39:00;;;;;;;0.60;0.10;;;12.70;1.00;;;;;;5043378;28;20815;-71
2023/10/17 13:41:28;;;;;;;0.80;0.30;;;12.70;1.00;;;;;;5051382;28;20863;-71
2023/10/17 13:43:56;;;;;;;0.90;0.37;;;12.80;1.00;;;;;;5043231;28;20485;-71
2023/10/17 13:46:24;;;;;;;0.60;0.10;;;12.90;1.00;;;;;;5044033;28;20512;-72
2023/10/17 13:48:53;;;;;;;0.60;0.20;;;13.00;1.00;;;;;;5051401;28;20446;-73
2023/10/17 13:51:21;;;;;;;0.60;0.10;;;13.00;1.00;;;;;;5051339;28;20806;-72
2023/10/17 13:53:50;;;;;;;0.60;0.30;;;13.00;1.00;;;;;;5052199;28;20525;-71
2023/10/17 13:56:19;;;;;;;0.60;0.30;;;13.00;1.00;;;;;;5043074;28;20510;-71
2023/10/17 13:58:49;;;;;;;0.60;0.20;;;12.90;1.00;;;;;;5051077;28;20468;-73
2023/10/17 14:01:31;;;;;;;0.60;0.10;;;12.30;1.00;;;;;;5051146;28;20478;-70
2023/10/17 14:04:02;;;;;;;0.60;0.10;;;13.00;1.00;;;;;;5051412;28;20489;-73
2023/10/17 14:06:34;;;;;;;0.60;0.10;;;13.10;1.00;;;;;;5052219;28;20438;-72
2023/10/17 14:09:03;;;;;;;0.60;0.20;;;13.10;1.00;;;;;;5051645;28;20446;-71
2023/10/17 14:11:31;;;;;;;0.60;0.10;;;13.10;1.00;;;;;;5051916;28;20458;-72
2023/10/17 14:13:59;;;;;;;0.60;0.20;;;13.20;1.00;;;;;;5052691;28;20440;-71
2023/10/17 14:16:27;;;;;;;0.60;0.10;;;13.20;1.00;;;;;;5052964;28;20478;-72
2023/10/17 14:19:04;;;;;;;0.70;0.30;;;13.20;1.00;;;;;;5051721;28;20450;-72
2023/10/17 14:21:39;;;;;;;0.60;0.10;;;13.30;1.00;;;;;;5054573;28;20869;-73
2023/10/17 14:24:10;;;;;;;0.60;0.10;;;13.40;1.00;;;;;;5055381;28;20738;-72
2023/10/17 14:26:38;;;;;;;0.60;0.10;;;13.40;1.00;;;;;;5055236;28;20453;-72
2023/10/17 14:29:07;;;;;;;0.60;0.10;;;13.40;1.00;;;;;;5053137;28;20443;-72
2023/10/17 14:31:36;;;;;;;0.60;0.10;;;13.40;1.00;;;;;;5049116;28;20483;-74
2023/10/17 14:34:05;;;;;;;0.60;0.10;;;13.30;1.00;;;;;;5054649;28;20448;-72
2023/10/17 14:36:34;;;;;;;0.60;0.10;;;13.30;1.00;;;;;;5054580;28;20576;-73
2023/10/17 14:39:09;;;;;;;0.60;0.10;;;13.40;1.00;;;;;;5055009;28;20788;-73
2023/10/17 14:41:40;;;;;;;0.60;0.10;;;13.50;1.00;;;;;;5054477;28;20576;-73
2023/10/17 14:44:08;;;;;;;0.60;0.10;;;13.50;1.00;;;;;;5054725;28;21047;-73
2023/10/17 14:46:35;;;;;;;0.60;0.10;;;13.50;1.00;;;;;;5055063;28;20526;-70
2023/10/17 14:49:04;;;;;;;0.60;0.10;;;13.60;1.00;;;;;;5054437;28;20898;-71
2023/10/17 14:51:34;;;;;;;0.60;0.10;;;13.60;1.00;;;;;;5054970;28;20462;-73
2023/10/17 14:54:08;;;;;;;0.60;0.10;;;13.60;1.00;;;;;;5054405;28;20918;-72
2023/10/17 14:56:36;;;;;;;0.60;0.20;;;13.50;1.00;;;;;;5054896;28;20485;-71
2023/10/17 14:59:05;;;;;;;0.60;0.10;;;13.60;1.00;;;;;;5053719;28;20882;-72
2023/10/17 15:01:32;;;;;;;0.60;0.10;;;13.60;1.00;;;;;;5059891;28;20462;-73
2023/10/17 15:04:01;;;;;;;0.70;0.40;;;13.60;1.00;;;;;;5069672;28;20442;-72
2023/10/17 15:06:29;;;;;;;0.60;0.10;;;13.50;1.00;;;;;;5060001;28;20442;-71
2023/10/17 15:08:58;;;;;;;0.60;0.10;;;13.50;1.00;;;;;;5054400;28;20965;-72
2023/10/17 15:11:26;;;;;;;0.60;0.10;;;13.60;1.00;;;;;;5054506;28;20505;-71
2023/10/17 15:13:54;;;;;;;0.60;0.10;;;13.60;1.00;;;;;;5054255;28;20873;-71
2023/10/17 15:16:22;;;;;;;0.60;0.30;;;13.60;1.00;;;;;;5054582;28;20506;-73
2023/10/17 15:18:51;;;;;;;0.60;0.20;;;;;;;;;;5054456;28;20454;-72
2023/10/17 15:21:21;;;;;;;0.60;0.10;;;13.70;1.00;;;;;;5046764;28;20454;-75
2023/10/17 15:23:51;;;;;;;0.60;0.10;;;13.60;1.00;;;;;;5055212;28;20432;-73
2023/10/17 15:26:21;;;;;;;0.67;0.33;;;13.50;1.00;;;;;;5056602;28;20567;-74
2023/10/17 15:28:50;;;;;;;0.60;0.17;;;13.50;1.00;;;;;;5055882;28;20450;-71
2023/10/17 15:31:18;;;;;;;0.80;0.30;;;13.50;1.00;;;;;;5054968;28;20474;-74
2023/10/17 15:33:47;;;;;;;0.60;0.10;;;;;;;;;;5054702;28;20508;-75
2023/10/17 15:36:24;;;;;;;0.90;0.50;;;13.50;1.00;;;;;;5056164;28;20566;-74
2023/10/17 15:38:56;;;;;;;3.40;0.60;;;13.40;1.00;;;;;;5053792;28;20537;-73
2023/10/17 15:41:26;;;;;;;1.90;1.03;;;;;;;;;;5046395;28;20458;-72
2023/10/17 15:43:53;;;;;;;0.60;0.10;;;13.40;1.00;;;;;;5053874;28;20534;-73
2023/10/17 15:46:24;;;;;;;0.60;0.10;;;13.30;1.00;;;;;;5044932;28;20857;-73
2023/10/17 15:48:54;;;;;;;0.60;0.10;;;13.30;1.00;;;;;;5053500;28;20953;-74
2023/10/17 15:51:23;;;;;;;0.60;0.10;;;13.30;1.00;;;;;;5045497;28;20503;-73
2023/10/17 15:53:52;;;;;;;0.70;0.27;;;13.10;1.00;;;;;;5053834;28;20442;-71
2023/10/17 15:56:28;;;;;;;0.60;0.10;;;13.10;1.00;;;;;;5051157;28;20471;-73
2023/10/17 15:58:56;;;;;;;0.60;0.20;;;13.10;1.00;;;;;;5053715;28;21014;-71
2023/10/17 16:01:24;;;;;;;0.60;0.10;;;13.00;1.00;;;;;;5046090;28;20544;-73
2023/10/17 16:03:54;;;;;;;0.60;0.10;;;12.90;1.00;;;;;;5051754;28;20521;-69
2023/10/17 16:06:23;;;;;;;0.60;0.10;;;12.80;1.00;;;;;;5046928;28;20456;-72
2023/10/17 16:08:51;;;;;;;4.23;1.90;;;12.90;1.00;;;;;;5053415;28;20450;-73
2023/10/17 16:11:20;;;;;;;0.60;0.10;;;12.90;1.00;;;;;;5055258;28;20533;-75
2023/10/17 16:13:49;;;;;;;0.60;0.10;;;12.90;1.00;;;;;;5049265;28;20504;-74
2023/10/17 16:16:18;;;;;;;0.60;0.10;;;12.90;1.00;;;;;;5119725;22;20520;-74
2023/10/17 16:18:47;;;;;;;0.60;0.10;;;12.80;1.00;;;;;;5051811;28;20469;-77
2023/10/17 16:21:15;;;;;;;0.60;0.10;;;12.80;1.00;;;;;;5050324;28;20456;-75
2023/10/17 16:23:47;;;;;;;0.60;0.10;;;12.70;1.00;;;;;;5041338;28;20435;-74
2023/10/17 16:26:15;;;;;;;0.60;0.10;;;;;;;;;;5042853;28;20463;-74
2023/10/17 16:28:44;;;;;;;0.60;0.10;;;;;;;;;;5051746;28;20502;-74
2023/10/17 16:31:14;;;;;;;0.60;0.20;;;12.40;1.00;;;;;;5043244;28;20528;-74
2023/10/17 16:33:42;;;;;;;0.60;0.10;;;12.40;1.00;;;;;;5048264;28;20439;-74
2023/10/17 16:36:10;;;;;;;0.60;0.10;;;12.30;1.00;;;;;;5043595;28;20470;-73
2023/10/17 16:38:39;;;;;;;0.60;0.10;;;12.20;1.00;;;;;;5046829;28;20514;-74
2023/10/17 16:41:08;;;;;;;0.60;0.10;;;12.20;1.00;;;;;;5041030;28;20450;-74
2023/10/17 16:43:36;;;;;;;0.60;0.10;;;12.10;1.00;;;;;;5045425;28;20500;-74
2023/10/17 16:46:04;;;;;;;0.60;0.10;;;12.10;1.00;;;;;;5039573;28;21029;-73
2023/10/17 16:48:33;;;;;;;0.60;0.10;;;12.10;1.00;;;;;;5044019;28;20809;-73
2023/10/17 16:51:02;;;;;;;0.60;0.10;;;12.00;1.00;;;;;;5050608;28;20842;-72
2023/10/17 16:53:31;;;;;;;0.70;0.40;;;11.90;1.00;;;;;;5039661;28;20447;-76
2023/10/17 16:55:59;;;;;;;0.60;0.10;;;11.90;1.00;;;;;;5047342;28;20549;-74
2023/10/17 16:58:27;;;;;;;0.60;0.10;;;11.90;1.00;;;;;;5042520;28;20478;-73
2023/10/17 17:01:05;;;;;;;0.60;0.20;;;11.80;1.00;;;;;;5050998;28;20521;-74
2023/10/17 17:03:35;;;;;;;0.60;0.10;;;11.80;1.00;;;;;;5049627;28;20968;-74
2023/10/17 17:06:05;;;;;;;1.03;0.93;;;11.70;1.00;;;;;;5045404;28;20462;-71
2023/10/17 17:08:34;;;;;;;0.60;0.10;;;;;;;;;;5042164;28;20477;-71
2023/10/17 17:11:05;;;;;;;0.60;0.10;;;11.60;1.00;;;;;;5050522;28;20442;-70
2023/10/17 17:13:33;;;;;;;0.60;0.10;;;11.50;1.00;;;;;;5042983;28;20460;-68
2023/10/17 17:16:01;;;;;;;0.60;0.20;;;11.50;1.00;;;;;;5047588;28;20470;-69
2023/10/17 17:18:30;;;;;;;0.60;0.10;;;11.60;1.00;;;;;;5045174;28;20482;-69
2023/10/17 17:21:16;;;;;;;0.60;0.10;;;11.50;1.00;;;;;;5048198;28;20476;-69
2023/10/17 17:23:45;;;;;;;0.60;0.10;;;11.40;1.00;;;;;;5047818;28;20465;-70
2023/10/17 17:26:17;;;;;;;0.60;0.30;;;11.40;1.00;;;;;;5047983;28;20556;-70
2023/10/17 17:28:45;;;;;;;0.60;0.10;;;11.30;1.00;;;;;;5047125;28;20512;-69
2023/10/17 17:31:13;;;;;;;1.30;0.77;;;11.20;1.00;;;;;;5048183;28;20442;-70
2023/10/17 17:33:42;;;;;;;0.80;0.63;;;;;;;;;;5050126;28;20510;-69
2023/10/17 17:36:11;;;;;;;0.60;0.10;;;11.10;1.00;;;;;;5037586;28;20516;-70
2023/10/17 17:38:43;;;;;;;0.60;0.20;;;11.10;1.00;;;;;;5044269;28;20536;-71
2023/10/17 17:41:11;;;;;;;0.60;0.20;;;11.10;1.00;;;;;;5036747;28;20454;-69
2023/10/17 17:43:39;;;;;;;0.60;0.10;;;11.00;1.00;;;;;;5017013;28;20468;-70
2023/10/17 17:46:08;;;;;;;0.60;0.10;;;;;;;;;;5009571;28;20496;-69
2023/10/17 17:48:38;;;;;;;0.60;0.10;;;10.90;1.00;;;;;;5007464;28;20439;-70
2023/10/17 17:51:07;;;;;;;0.60;0.20;;;11.00;1.00;;;;;;5007750;28;20522;-71
2023/10/17 17:53:35;;;;;;;0.77;0.30;;;11.00;1.00;;;;;;5009586;28;20436;-71
2023/10/17 17:56:06;;;;;;;0.60;0.10;;;11.00;1.00;;;;;;5011274;28;20825;-70
2023/10/17 17:58:34;;;;;;;0.60;0.20;;;11.00;1.00;;;;;;5005212;28;20955;-72
2023/10/17 18:01:07;;;;;;;0.60;0.10;;;10.90;1.00;;;;;;5011383;28;20958;-69
2023/10/17 18:03:36;;;;;;;0.60;0.27;;;;;;;;;;5008106;28;20842;-72
2023/10/17 18:06:06;;;;;;;0.73;0.50;;;10.90;1.00;;;;;;5007498;28;20547;-73
2023/10/17 18:08:34;;;;;;;0.60;0.20;;;10.80;1.00;;;;;;5012626;28;20540;-70
2023/10/17 18:11:04;;;;;;;1.70;1.23;;;10.90;1.00;;;;;;5007826;28;20968;-71
2023/10/17 18:13:32;;;;;;;0.60;0.20;;;10.80;1.00;;;;;;5007278;28;20533;-71
2023/10/17 18:16:01;;;;;;;0.60;0.10;;;10.80;1.00;;;;;;5011126;28;21000;-70
2023/10/17 18:18:30;;;;;;;0.60;0.10;;;10.90;1.00;;;;;;5014601;28;20851;-70
2023/10/17 18:21:08;;;;;;;0.60;0.10;;;10.80;1.00;;;;;;5008955;28;20462;-69
2023/10/17 18:23:37;;;;;;;0.60;0.10;;;10.80;1.00;;;;;;5004428;28;20526;-70
2023/10/17 18:26:15;;;;;;;0.60;0.10;;;10.80;1.00;;;;;;5003646;28;20467;-72
2023/10/17 18:28:43;;;;;;;0.60;0.20;;;10.80;1.00;;;;;;5013022;28;20440;-72
2023/10/17 18:31:12;;;;;;;1.43;0.20;;;10.70;1.00;;;;;;5012172;28;20818;-72
2023/10/17 18:33:42;;;;;;;0.77;0.60;;;10.70;1.00;;;;;;5014525;28;20444;-70
2023/10/17 18:36:10;;;;;;;0.60;0.10;;;10.70;1.00;;;;;;5013681;28;20463;-70
2023/10/17 18:38:39;;;;;;;0.60;0.30;;;10.70;1.00;;;;;;5014220;28;21077;-71
2023/10/17 18:41:09;;;;;;;0.70;0.30;;;10.70;1.00;;;;;;5011498;28;20986;-71
2023/10/17 18:43:37;;;;;;;0.60;0.10;;;10.70;1.00;;;;;;5014992;28;20482;-71